Latest Coastal Weather Observations for Wynyard

IDV60701

Issued at 10:11 am EST Tuesday 27 September 2016 (issued every 10 minutes, with the page automatically refreshed every 10 minutes)

About coastal observations | Map of coastal stations | Coastal observations for VIC | Marine services | Other Formats
Station Details ID: 091107 Name: WYNYARD AIRPORT Lat: -41.00 Lon: 145.73 Height: 12.0 m
Data from the previous 72 hours. | See also: Recent months at Wynyard
Date/Time
EST
Temp
°C
Wind Pressure Rain since
9am
mm
Weather Cloud Vis
km
Sea
Height
m
Swell
Dir  Spd
kts
Gust
kts
hPa Trend Height
m
Period
s
Dir
27/10:00am 12.6 NE 8 9 1008.8 - 0.0 - - 10 - - - -
27/09:30am 12.5 NE 7 8 1009.0 - 0.0 - - 10 - - - -
27/09:00am 12.7 ENE 3 7 1008.8 - 0.2 - - 10 - - - -
27/08:30am 10.8 W 3 4 1008.8 - 0.2 - - 10 - - - -
27/08:00am 9.8 CALM 0 3 1008.6 - 0.2 - - 10 - - - -
27/07:30am 7.9 WNW 5 6 1008.5 - 0.2 - - 10 - - - -
27/07:00am 6.5 WNW 5 6 1008.3 - 0.2 - - 10 - - - -
27/06:30am 5.0 WNW 6 7 1008.1 - 0.2 - - 10 - - - -
27/06:00am 4.0 WNW 5 6 1007.7 - 0.2 - - 10 - - - -
27/05:30am 5.1 WNW 5 6 1007.5 - 0.2 - - 10 - - - -
27/05:00am 5.8 NW 6 7 1007.4 - 0.2 - - 10 - - - -
27/04:30am 5.0 W 5 6 1007.4 - 0.2 - Partly cloudy 10 - - - -
27/04:00am 5.5 WNW 5 6 1007.4 - 0.2 - Partly cloudy 10 - - - -
27/03:30am 5.8 W 4 5 1007.4 - 0.2 - Partly cloudy 10 - - - -
27/03:00am 6.3 WNW 5 6 1007.5 - 0.2 - Partly cloudy 10 - - - -
27/02:30am 5.9 WNW 5 7 1007.6 - 0.2 - Partly cloudy 10 - - - -
27/02:00am 6.0 NW 4 5 1007.9 - 0.2 - Partly cloudy 10 - - - -
27/01:30am 5.6 W 5 7 1008.2 - 0.2 - Partly cloudy 10 - - - -
27/01:00am 5.6 W 4 6 1008.3 - 0.2 - Partly cloudy 10 - - - -
27/12:30am 5.4 WNW 5 5 1008.5 - 0.2 - - 10 - - - -
27/12:00am 5.2 WNW 5 5 1008.8 - 0.2 - - 10 - - - -
 
Date/Time
EST
Temp
°C
Wind Pressure Rain since
9am
mm
Weather Cloud Vis
km
Sea
Height
m
Swell
Dir  Spd
kts
Gust
kts
hPa Trend Height
m
Period
s
Dir
26/11:30pm 5.6 WNW 5 6 1009.0 - 0.2 - - 10 - - - -
26/11:00pm 5.8 WSW 4 5 1009.1 - 0.2 - - 10 - - - -
26/10:30pm 6.8 WSW 5 5 1009.2 - 0.2 - - 10 - - - -
26/10:00pm 7.0 WSW 4 5 1009.4 - 0.2 - - 10 - - - -
26/09:30pm 7.6 S 4 6 1009.5 - 0.2 - - 10 - - - -
26/09:00pm 8.7 S 3 5 1009.4 - 0.2 - Mostly clear 10 - - - -
26/08:30pm 9.9 S 5 6 1009.5 - 0.2 - Partly cloudy 10 - - - -
26/08:00pm 10.0 SSW 5 7 1009.4 - 0.2 - Partly cloudy 10 - - - -
26/07:30pm 10.1 S 2 4 1009.3 - 0.2 - Partly cloudy 10 - - - -
26/07:00pm 11.2 N 3 4 1009.2 - 0.2 - Partly cloudy 10 - - - -
26/06:30pm 11.2 NNW 3 4 1009.0 - 0.2 - Partly cloudy 10 - - - -
26/06:00pm 11.3 N 5 8 1008.9 - 0.2 - Mostly clear 10 - - - -
26/05:30pm 11.9 N 7 10 1008.8 - 0.2 - Partly cloudy 10 - - - -
26/05:00pm 12.3 N 7 10 1008.8 - 0.2 - Partly cloudy 10 - - - -
26/04:30pm 12.0 NNW 8 11 1008.7 - 0.2 - Partly cloudy 10 - - - -
26/04:00pm 12.3 NNW 11 15 1008.6 - 0.2 - Partly cloudy 10 - - - -
26/03:30pm 13.0 NNW 12 16 1008.6 - 0.2 - Partly cloudy 10 - - - -
26/03:00pm 13.6 NNW 11 15 1008.9 - 0.2 - Mostly cloudy 10 - - - -
26/02:30pm 14.0 N 10 15 1008.9 - 0.2 - Partly cloudy 10 - - - -
26/02:00pm 13.7 N 11 15 1009.0 - 0.2 - - 10 - - - -
26/01:30pm 14.1 N 11 14 1009.1 - 0.2 - Partly cloudy 10 - - - -
26/01:00pm 13.8 NNW 10 15 1009.5 - 0.2 - Partly cloudy 10 - - - -
26/12:30pm 13.6 N 9 12 1009.8 - 0.2 - Partly cloudy 10 - - - -
26/12:00pm 13.4 N 11 14 1010.1 - 0.2 Recent precip. Mostly clear 10 - - - -
26/11:30am 13.4 NE 10 13 1010.3 - 0.2 - Partly cloudy 10 - - - -
26/11:00am 12.5 NE 9 11 1010.7 - 0.0 - Partly cloudy 10 - - - -
26/10:30am 11.8 NE 9 10 1011.0 - 0.0 - Cloudy 10 - - - -
26/10:00am 12.2 NE 7 9 1011.2 - 0.0 - Partly cloudy 10 - - - -
26/09:30am 11.2 NNE 5 8 1011.4 - 0.0 - Partly cloudy 10 - - - -
26/09:00am 11.4 S 2 4 1011.4 - 0.4 - Mostly clear 10 - - - -
26/08:30am 9.6 CALM 0 3 1011.6 - 0.4 - Partly cloudy 10 - - - -
26/08:00am 7.6 W 4 5 1011.7 - 0.4 - Partly cloudy 10 - - - -
26/07:30am 6.4 W 4 4 1011.7 - 0.4 - Cloudy 10 - - - -
26/07:00am 5.5 SW 1 3 1011.6 - 0.4 - Partly cloudy 10 - - - -
26/06:30am 4.9 W 5 6 1011.7 - 0.4 - Cloudy 10 - - - -
26/06:00am 3.7 WSW 4 6 1011.5 - 0.4 - Cloudy 10 - - - -
26/05:30am 3.7 WNW 5 6 1011.3 - 0.4 - Partly cloudy 10 - - - -
26/05:00am 4.0 WNW 5 6 1011.3 - 0.4 - Partly cloudy 10 - - - -
26/04:30am 3.9 W 6 7 1011.3 - 0.4 - - 10 - - - -
26/04:00am 4.1 W 6 7 1011.3 - 0.4 - - 10 - - - -
26/03:30am 4.2 WNW 7 7 1011.4 - 0.4 - - 10 - - - -
26/03:00am 4.9 WNW 7 8 1011.3 - 0.4 - Cloudy 10 - - - -
26/02:30am 4.8 WNW 6 7 1011.5 - 0.4 - - 10 - - - -
26/02:00am 4.5 WNW 6 7 1011.6 - 0.4 - - 10 - - - -
26/01:30am 4.3 W 7 7 1012.0 - 0.4 - - 10 - - - -
26/01:00am 4.5 W 4 6 1012.0 - 0.4 - - 10 - - - -
26/12:30am 5.4 WNW 6 8 1012.0 - 0.4 - Partly cloudy 10 - - - -
26/12:00am 4.2 WSW 5 6 1012.1 - 0.4 - Cloudy 10 - - - -
 
Date/Time
EST
Temp
°C
Wind Pressure Rain since
9am
mm
Weather Cloud Vis
km
Sea
Height
m
Swell
Dir  Spd
kts
Gust
kts
hPa Trend Height
m
Period
s
Dir
25/11:30pm 4.8 WNW 5 7 1012.3 - 0.4 - - 10 - - - -
25/11:00pm 5.4 NW 5 7 1012.3 - 0.4 - - 10 - - - -
25/10:30pm 4.4 CALM 0 1 1012.3 - 0.4 - - 10 - - - -
25/10:00pm 4.7 S 3 5 1012.3 - 0.4 - - 10 - - - -
25/09:30pm 5.3 W 8 9 1012.3 - 0.4 - - 10 - - - -
25/09:00pm 6.0 WNW 9 9 1012.1 - 0.4 - - 10 - - - -
25/08:30pm 6.5 W 7 8 1011.8 - 0.4 - - 10 - - - -
25/08:00pm 7.3 WNW 5 6 1011.5 - 0.4 - - 10 - - - -
25/07:30pm 7.4 WSW 7 7 1011.0 - 0.4 - - 10 - - - -
25/07:00pm 8.6 W 9 11 1010.5 - 0.4 - - 10 - - - -
25/06:30pm 8.7 WSW 8 10 1010.0 - 0.4 - - 10 - - - -
25/06:00pm 10.7 WSW 10 13 1009.5 - 0.4 - - 10 - - - -
25/05:30pm 11.7 WSW 14 18 1009.0 - 0.4 - - 10 - - - -
25/05:00pm 12.7 WSW 14 21 1008.5 - 0.4 - - 10 - - - -
25/04:30pm 13.2 WSW 13 20 1008.2 - 0.4 - - 10 - - - -
25/04:00pm 13.5 WSW 17 23 1008.0 - 0.4 - - 10 - - - -
25/03:30pm 14.4 WSW 15 20 1007.8 - 0.4 - Partly cloudy 10 - - - -
25/03:00pm 14.2 WSW 15 19 1007.5 - 0.4 - Mostly clear 10 - - - -
25/02:30pm 13.8 WSW 14 18 1007.4 - 0.4 - Partly cloudy 10 - - - -
25/02:00pm 11.7 WSW 16 24 1007.4 - 0.4 - Partly cloudy 9 - - - -
25/01:30pm 13.1 W 15 23 1007.0 - 0.4 - - 10 - - - -
25/01:00pm 12.9 WSW 18 25 1007.0 - 0.4 - Partly cloudy 10 - - - -
25/12:34pm 11.6 SW 17 27 1007.0 - 0.4 - Partly cloudy 10 - - - -
25/12:30pm 11.1 SW 18 27 1007.0 - 0.4 - Partly cloudy 10 - - - -
25/12:26pm 11.8 SW 16 27 1006.9 - 0.0 - Partly cloudy 10 - - - -
25/12:00pm 11.8 WSW 18 26 1006.7 - 0.0 - Mostly cloudy 10 - - - -
25/11:31am 13.9 WSW 16 26 1006.3 - 0.0 - - 10 - - - -
25/11:30am 14.1 WSW 16 23 1006.3 - 0.0 - - 10 - - - -
25/11:00am 13.0 W 16 24 1006.3 - 0.0 - Partly cloudy 10 - - - -
25/10:30am 12.9 WSW 16 23 1006.2 - 0.0 - Partly cloudy 10 - - - -
25/10:06am 12.0 W 19 29 1006.2 - 0.0 - Partly cloudy 10 - - - -
25/10:00am 12.6 W 17 26 1006.1 - 0.0 - Partly cloudy 10 - - - -
25/09:56am 11.9 W 15 26 1006.1 - 0.0 - Partly cloudy 10 - - - -
25/09:30am 12.4 WSW 17 26 1006.2 - 0.0 - - 10 - - - -
25/09:00am 11.6 WSW 15 21 1005.9 - 8.8 - Mostly clear 10 - - - -
25/08:30am 11.0 W 13 17 1005.5 - 8.8 - - 10 - - - -
25/08:00am 10.5 WSW 10 15 1005.3 - 8.8 - - 10 - - - -
25/07:30am 9.8 WSW 11 15 1004.9 - 8.8 - - 10 - - - -
25/07:00am 8.8 W 9 14 1004.8 - 8.8 - Partly cloudy 10 - - - -
25/06:30am 8.1 WNW 8 9 1004.5 - 8.8 - - 10 - - - -
25/06:00am 8.0 W 9 11 1004.1 - 8.8 - - 10 - - - -
25/05:30am 8.7 W 11 14 1003.8 - 8.8 - - 10 - - - -
25/05:00am 9.0 W 12 15 1003.5 - 8.8 - - 10 - - - -
25/04:30am 9.5 W 13 17 1003.1 - 8.8 - - 10 - - - -
25/04:00am 9.7 W 13 17 1002.8 - 8.8 - Partly cloudy 10 - - - -
25/03:30am 10.5 W 16 22 1002.4 - 8.8 - Partly cloudy 10 - - - -
25/03:13am 11.3 W 15 19 1002.2 - 8.8 - Partly cloudy 10 - - - -
25/03:00am 11.8 WNW 13 17 1002.0 - 8.8 Recent precip. Cloudy 5 - - - -
25/02:57am 11.9 WNW 13 16 1002.0 - 8.8 - Partly cloudy 5 - - - -
25/02:54am 12.0 WNW 13 17 1001.9 - 8.8 - Partly cloudy 7 - - - -
25/02:30am 12.3 NNW 11 17 1002.0 - 8.8 - Partly cloudy 9 - - - -
25/02:09am 12.1 NNW 10 13 1002.5 - 8.6 - Partly cloudy 10 - - - -
25/02:00am 12.1 NNW 11 17 1002.7 - 8.6 - Partly cloudy 10 - - - -
25/01:59am 12.1 NNW 11 17 1002.7 - 8.6 - Partly cloudy 10 - - - -
25/01:30am 12.4 NNW 7 10 1003.1 - 7.8 - Partly cloudy 7 - - - -
25/01:00am 12.5 NNW 12 18 1003.5 - 6.8 - Partly cloudy 10 - - - -
25/12:48am 12.5 NW 11 18 1003.6 - 6.6 - Partly cloudy 9 - - - -
25/12:30am 12.5 NNW 12 19 1003.6 - 6.0 - Partly cloudy 8 - - - -
25/12:00am 12.6 NNW 14 20 1003.9 - 5.0 Rain Mostly cloudy 9 - - - -
 
Date/Time
EST
Temp
°C
Wind Pressure Rain since
9am
mm
Weather Cloud Vis
km
Sea
Height
m
Swell
Dir  Spd
kts
Gust
kts
hPa Trend Height
m
Period
s
Dir
24/11:34pm 12.4 NNW 11 16 1004.0 - 3.8 - Partly cloudy 8 - - - -
24/11:30pm 12.5 NNW 11 17 1004.0 - 3.6 - Partly cloudy 6 - - - -
24/11:23pm 12.5 NNW 11 17 1004.1 - 3.2 - Partly cloudy 5 - - - -
24/11:00pm 12.9 N 8 15 1004.4 - 1.8 - Partly cloudy 8 - - - -
24/10:30pm 12.8 NE 6 8 1004.5 - 0.4 - Partly cloudy 10 - - - -
24/10:00pm 12.7 NE 5 8 1004.8 - 0.2 - Partly cloudy 10 - - - -
24/09:30pm 12.7 ENE 5 8 1004.9 - 0.0 - Cloudy 10 - - - -
24/09:00pm 12.7 E 4 6 1005.0 - 0.0 - Cloudy 10 - - - -
24/08:30pm 12.8 E 5 8 1005.0 - 0.0 - Cloudy 10 - - - -
24/08:00pm 12.6 ESE 8 10 1005.0 - 0.0 - Partly cloudy 10 - - - -
24/07:30pm 12.6 ESE 6 8 1005.2 - 0.0 - Partly cloudy 10 - - - -
24/07:00pm 12.5 ESE 5 7 1005.2 - 0.0 - Partly cloudy 10 - - - -
24/06:30pm 12.6 ESE 6 7 1005.1 - 0.0 - - 10 - - - -
24/06:00pm 12.8 E 4 5 1005.2 - 0.0 - Cloudy 10 - - - -
24/05:30pm 13.1 ENE 5 6 1005.5 - 0.0 - - 10 - - - -
24/05:00pm 13.4 NE 5 7 1005.6 - 0.0 - - 10 - - - -
24/04:30pm 14.1 NE 6 8 1005.6 - 0.0 - - 10 - - - -
24/04:00pm 15.0 NE 7 10 1005.7 - 0.0 - Cloudy 10 - - - -
24/03:30pm 14.4 NNE 7 9 1005.7 - 0.0 - Partly cloudy 10 - - - -
24/03:00pm 14.4 NNE 7 9 1006.0 - 0.0 - Cloudy 10 - - - -
24/02:54pm 14.4 NNE 7 9 1006.0 - 0.0 - Partly cloudy 10 - - - -
24/02:30pm 14.3 NE 8 10 1006.0 - 0.0 - Partly cloudy 10 - - - -
24/02:18pm 14.3 NNE 8 11 1006.2 - 0.0 - Partly cloudy 10 - - - -
24/02:05pm 14.8 NNE 9 11 1006.4 - 0.0 - Partly cloudy 10 - - - -
24/02:00pm 14.2 NNE 9 11 1006.5 - 0.0 - Partly cloudy 10 - - - -
24/01:30pm 14.2 NE 10 13 1006.8 - 0.0 - Cloudy 10 - - - -
24/01:00pm 15.0 NE 11 15 1007.2 - 0.0 - Cloudy 10 - - - -
24/12:30pm 14.4 NE 11 15 1007.5 - 0.0 - Cloudy 10 - - - -
24/12:00pm 14.1 ENE 11 14 1007.8 - 0.0 - Cloudy 10 - - - -
24/11:30am 14.5 ENE 10 14 1008.1 - 0.0 - Cloudy 10 - - - -
24/11:00am 14.3 ENE 12 16 1008.7 - 0.0 - Cloudy 10 - - - -
24/10:30am 13.5 ENE 9 13 1009.1 - 0.0 - Cloudy 10 - - - -

Other Formats:

Comma delimited format used in spreadsheet applications
http://www.bom.gov.au/fwo/IDV60701/IDV60701.95957.axf

JavaScript Object Notation format (JSON) in row-major order
http://www.bom.gov.au/fwo/IDV60701/IDV60701.95957.json